Back to Top

Language: 

My Weather Underground Personal Weather Station Historical Data with Graphs...

Delerius Weather Station Historical Data
Daily Summary for February 2, 2017 Units:  Both    English   Metric
« Previous Day
Next Day »
Daily Weekly Monthly Yearly Custom
  High: Low: Average:
Temperature: 52.0 °F /  11.1 °C 47.9 °F /  8.8 °C 50.5 °F /  10.3 °C
Dew Point: 49.1 °F /  9.5 °C 44.2 °F /  6.8 °C 47.5 °F /  8.6 °C
Humidity: 97 % 78 % 90 %
Wind Speed: 18.0 mph /  29 km/h - 11.9 mph /  19.2 km/h
Wind Gust: 30.0 mph /  48.3 km/h - -
Wind:- - SSE
Pressure: 29.46 in /  997.5 hPa 29.17 in /  987.7 hPa -
Precipitation: 0.02 in /  0.51 mm    
Historical Graphs
 
 
Tabular Data for February 2, 2017
Time Temperature Dew Point Pressure Wind Wind Speed Wind Gust Humidity Rainfall Rate (Hourly) solar Conditions
00:01 48.0 °F /  8.9 °C 45.2 °F /  7.3 °C 29.46 in /  997.5 hPa South 8.0 mph /  12.9 km/h -999.0 mph /  -1607.7 km/h 90 % 0.00 in /  0 mm 0 W/m2
00:06 48.0 °F /  8.9 °C 45.2 °F /  7.3 °C 29.46 in /  997.5 hPa South 8.0 mph /  12.9 km/h -999.0 mph /  -1607.7 km/h 90 % 0.00 in /  0 mm 0 W/m2
00:11 48.0 °F /  8.9 °C 45.2 °F /  7.3 °C 29.46 in /  997.5 hPa South 8.0 mph /  12.9 km/h -999.0 mph /  -1607.7 km/h 90 % 0.00 in /  0 mm 0 W/m2
00:16 48.0 °F /  8.9 °C 45.2 °F /  7.3 °C 29.46 in /  997.5 hPa South 8.0 mph /  12.9 km/h -999.0 mph /  -1607.7 km/h 90 % 0.00 in /  0 mm 0 W/m2
00:21 48.0 °F /  8.9 °C 45.2 °F /  7.3 °C 29.46 in /  997.5 hPa South 8.0 mph /  12.9 km/h -999.0 mph /  -1607.7 km/h 90 % 0.00 in /  0 mm 0 W/m2
00:26 47.9 °F /  8.8 °C 45.1 °F /  7.3 °C 29.46 in /  997.5 hPa SSW 8.0 mph /  12.9 km/h -999.0 mph /  -1607.7 km/h 90 % 0.00 in /  0 mm 0 W/m2
00:31 47.9 °F /  8.8 °C 45.1 °F /  7.3 °C 29.46 in /  997.5 hPa SSW 8.0 mph /  12.9 km/h -999.0 mph /  -1607.7 km/h 90 % 0.00 in /  0 mm 0 W/m2
00:36 47.9 °F /  8.8 °C 45.1 °F /  7.3 °C 29.46 in /  997.5 hPa SSW 8.0 mph /  12.9 km/h -999.0 mph /  -1607.7 km/h 90 % 0.00 in /  0 mm 0 W/m2
00:41 48.3 °F /  9.1 °C 45.5 °F /  7.5 °C 29.45 in /  997.2 hPa SSW 10.0 mph /  16.1 km/h -999.0 mph /  -1607.7 km/h 90 % 0.00 in /  0 mm 0 W/m2
00:46 48.3 °F /  9.1 °C 45.5 °F /  7.5 °C 29.45 in /  997.2 hPa SSW 10.0 mph /  16.1 km/h -999.0 mph /  -1607.7 km/h 90 % 0.00 in /  0 mm 0 W/m2
00:51 48.3 °F /  9.1 °C 45.5 °F /  7.5 °C 29.45 in /  997.2 hPa SSW 10.0 mph /  16.1 km/h -999.0 mph /  -1607.7 km/h 90 % 0.00 in /  0 mm 0 W/m2
00:56 48.8 °F /  9.3 °C 46.0 °F /  7.8 °C 29.45 in /  997.2 hPa SSW 9.0 mph /  14.5 km/h -999.0 mph /  -1607.7 km/h 90 % 0.00 in /  0 mm 0 W/m2
01:01 48.8 °F /  9.3 °C 46.0 °F /  7.8 °C 29.45 in /  997.2 hPa SSW 9.0 mph /  14.5 km/h -999.0 mph /  -1607.7 km/h 90 % 0.00 in /  0 mm 0 W/m2
01:06 48.8 °F /  9.3 °C 46.0 °F /  7.8 °C 29.45 in /  997.2 hPa SSW 9.0 mph /  14.5 km/h -999.0 mph /  -1607.7 km/h 90 % 0.00 in /  0 mm 0 W/m2
01:11 49.0 °F /  9.4 °C 46.5 °F /  8.1 °C 29.44 in /  996.8 hPa SSW 8.0 mph /  12.9 km/h -999.0 mph /  -1607.7 km/h 91 % 0.00 in /  0 mm 0 W/m2
01:16 49.0 °F /  9.4 °C 46.5 °F /  8.1 °C 29.44 in /  996.8 hPa SSW 8.0 mph /  12.9 km/h -999.0 mph /  -1607.7 km/h 91 % 0.00 in /  0 mm 0 W/m2
01:21 49.0 °F /  9.4 °C 46.5 °F /  8.1 °C 29.44 in /  996.8 hPa SSW 8.0 mph /  12.9 km/h -999.0 mph /  -1607.7 km/h 91 % 0.00 in /  0 mm 0 W/m2
01:26 49.1 °F /  9.5 °C 46.6 °F /  8.1 °C 29.43 in /  996.5 hPa South 10.0 mph /  16.1 km/h -999.0 mph /  -1607.7 km/h 91 % 0.00 in /  0 mm 0 W/m2
01:31 49.1 °F /  9.5 °C 46.6 °F /  8.1 °C 29.43 in /  996.5 hPa South 10.0 mph /  16.1 km/h -999.0 mph /  -1607.7 km/h 91 % 0.00 in /  0 mm 0 W/m2
01:36 49.1 °F /  9.5 °C 46.6 °F /  8.1 °C 29.43 in /  996.5 hPa South 10.0 mph /  16.1 km/h -999.0 mph /  -1607.7 km/h 91 % 0.00 in /  0 mm 0 W/m2
01:41 49.4 °F /  9.7 °C 46.9 °F /  8.3 °C 29.43 in /  996.5 hPa South 10.0 mph /  16.1 km/h -999.0 mph /  -1607.7 km/h 91 % 0.00 in /  0 mm 0 W/m2
01:46 49.4 °F /  9.7 °C 46.9 °F /  8.3 °C 29.43 in /  996.5 hPa South 10.0 mph /  16.1 km/h -999.0 mph /  -1607.7 km/h 91 % 0.00 in /  0 mm 0 W/m2
01:51 49.4 °F /  9.7 °C 46.9 °F /  8.3 °C 29.43 in /  996.5 hPa South 10.0 mph /  16.1 km/h -999.0 mph /  -1607.7 km/h 91 % 0.00 in /  0 mm 0 W/m2
01:56 49.3 °F /  9.6 °C 46.8 °F /  8.2 °C 29.42 in /  996.2 hPa South 9.0 mph /  14.5 km/h -999.0 mph /  -1607.7 km/h 91 % 0.00 in /  0 mm 0 W/m2
02:01 49.3 °F /  9.6 °C 46.8 °F /  8.2 °C 29.42 in /  996.2 hPa South 9.0 mph /  14.5 km/h -999.0 mph /  -1607.7 km/h 91 % 0.00 in /  0 mm 0 W/m2
02:06 49.3 °F /  9.6 °C 46.8 °F /  8.2 °C 29.42 in /  996.2 hPa South 9.0 mph /  14.5 km/h -999.0 mph /  -1607.7 km/h 91 % 0.00 in /  0 mm 0 W/m2
02:11 49.3 °F /  9.6 °C 46.8 °F /  8.2 °C 29.43 in /  996.5 hPa South 8.0 mph /  12.9 km/h -999.0 mph /  -1607.7 km/h 91 % 0.00 in /  0 mm 0 W/m2
02:16 49.3 °F /  9.6 °C 46.8 °F /  8.2 °C 29.43 in /  996.5 hPa South 8.0 mph /  12.9 km/h -999.0 mph /  -1607.7 km/h 91 % 0.00 in /  0 mm 0 W/m2
02:21 49.3 °F /  9.6 °C 46.8 °F /  8.2 °C 29.43 in /  996.5 hPa South 8.0 mph /  12.9 km/h -999.0 mph /  -1607.7 km/h 91 % 0.00 in /  0 mm 0 W/m2
02:26 49.1 °F /  9.5 °C 46.9 °F /  8.3 °C 29.42 in /  996.2 hPa South 6.0 mph /  9.7 km/h -999.0 mph /  -1607.7 km/h 92 % 0.00 in /  0 mm 0 W/m2
02:31 49.1 °F /  9.5 °C 46.9 °F /  8.3 °C 29.42 in /  996.2 hPa South 6.0 mph /  9.7 km/h -999.0 mph /  -1607.7 km/h 92 % 0.00 in /  0 mm 0 W/m2
02:36 49.1 °F /  9.5 °C 46.9 °F /  8.3 °C 29.42 in /  996.2 hPa South 6.0 mph /  9.7 km/h -999.0 mph /  -1607.7 km/h 92 % 0.00 in /  0 mm 0 W/m2
02:41 49.0 °F /  9.4 °C 46.8 °F /  8.2 °C 29.42 in /  996.2 hPa SSE 7.0 mph /  11.3 km/h -999.0 mph /  -1607.7 km/h 92 % 0.00 in /  0 mm 0 W/m2
02:46 49.0 °F /  9.4 °C 46.8 °F /  8.2 °C 29.42 in /  996.2 hPa SSE 7.0 mph /  11.3 km/h -999.0 mph /  -1607.7 km/h 92 % 0.00 in /  0 mm 0 W/m2
02:51 49.0 °F /  9.4 °C 46.8 °F /  8.2 °C 29.42 in /  996.2 hPa SSE 7.0 mph /  11.3 km/h -999.0 mph /  -1607.7 km/h 92 % 0.00 in /  0 mm 0 W/m2
02:56 49.1 °F /  9.5 °C 47.2 °F /  8.4 °C 29.42 in /  996.2 hPa SSE 9.0 mph /  14.5 km/h -999.0 mph /  -1607.7 km/h 93 % 0.00 in /  0 mm 0 W/m2
03:01 49.1 °F /  9.5 °C 47.2 °F /  8.4 °C 29.42 in /  996.2 hPa SSE 9.0 mph /  14.5 km/h -999.0 mph /  -1607.7 km/h 93 % 0.00 in /  0 mm 0 W/m2
03:06 49.1 °F /  9.5 °C 47.2 °F /  8.4 °C 29.42 in /  996.2 hPa SSE 9.0 mph /  14.5 km/h -999.0 mph /  -1607.7 km/h 93 % 0.00 in /  0 mm 0 W/m2
03:11 49.3 °F /  9.6 °C 47.4 °F /  8.6 °C 29.41 in /  995.8 hPa South 8.0 mph /  12.9 km/h -999.0 mph /  -1607.7 km/h 93 % 0.00 in /  0 mm 0 W/m2
03:16 49.3 °F /  9.6 °C 47.4 °F /  8.6 °C 29.41 in /  995.8 hPa South 8.0 mph /  12.9 km/h -999.0 mph /  -1607.7 km/h 93 % 0.00 in /  0 mm 0 W/m2
03:21 49.3 °F /  9.6 °C 47.4 °F /  8.6 °C 29.41 in /  995.8 hPa South 8.0 mph /  12.9 km/h -999.0 mph /  -1607.7 km/h 93 % 0.00 in /  0 mm 0 W/m2
03:26 49.3 °F /  9.6 °C 47.6 °F /  8.7 °C 29.42 in /  996.2 hPa SSE 8.0 mph /  12.9 km/h -999.0 mph /  -1607.7 km/h 94 % 0.00 in /  0 mm 0 W/m2
03:31 49.3 °F /  9.6 °C 47.6 °F /  8.7 °C 29.42 in /  996.2 hPa SSE 8.0 mph /  12.9 km/h -999.0 mph /  -1607.7 km/h 94 % 0.00 in /  0 mm 0 W/m2
03:36 49.3 °F /  9.6 °C 47.6 °F /  8.7 °C 29.42 in /  996.2 hPa SSE 8.0 mph /  12.9 km/h -999.0 mph /  -1607.7 km/h 94 % 0.00 in /  0 mm 0 W/m2
03:41 49.4 °F /  9.7 °C 47.7 °F /  8.7 °C 29.41 in /  995.8 hPa SSE 8.0 mph /  12.9 km/h -999.0 mph /  -1607.7 km/h 94 % 0.00 in /  0 mm 0 W/m2
03:46 49.4 °F /  9.7 °C 47.7 °F /  8.7 °C 29.41 in /  995.8 hPa SSE 8.0 mph /  12.9 km/h -999.0 mph /  -1607.7 km/h 94 % 0.00 in /  0 mm 0 W/m2
03:51 49.4 °F /  9.7 °C 47.7 °F /  8.7 °C 29.41 in /  995.8 hPa SSE 8.0 mph /  12.9 km/h -999.0 mph /  -1607.7 km/h 94 % 0.00 in /  0 mm 0 W/m2
03:56 49.4 °F /  9.7 °C 48.0 °F /  8.9 °C 29.40 in /  995.5 hPa SSE 8.0 mph /  12.9 km/h -999.0 mph /  -1607.7 km/h 95 % 0.00 in /  0 mm 0 W/m2
04:01 49.4 °F /  9.7 °C 48.0 °F /  8.9 °C 29.40 in /  995.5 hPa SSE 8.0 mph /  12.9 km/h -999.0 mph /  -1607.7 km/h 95 % 0.00 in /  0 mm 0 W/m2
04:06 49.4 °F /  9.7 °C 48.0 °F /  8.9 °C 29.40 in /  995.5 hPa SSE 8.0 mph /  12.9 km/h -999.0 mph /  -1607.7 km/h 95 % 0.00 in /  0 mm 0 W/m2
04:11 49.4 °F /  9.7 °C 48.3 °F /  9.1 °C 29.40 in /  995.5 hPa SE 9.0 mph /  14.5 km/h -999.0 mph /  -1607.7 km/h 96 % 0.00 in /  0 mm 0 W/m2
04:16 49.4 °F /  9.7 °C 48.3 °F /  9.1 °C 29.40 in /  995.5 hPa SE 9.0 mph /  14.5 km/h -999.0 mph /  -1607.7 km/h 96 % 0.00 in /  0 mm 0 W/m2
04:21 49.4 °F /  9.7 °C 48.3 °F /  9.1 °C 29.40 in /  995.5 hPa SE 9.0 mph /  14.5 km/h -999.0 mph /  -1607.7 km/h 96 % 0.00 in /  0 mm 0 W/m2
04:26 49.5 °F /  9.7 °C 48.4 °F /  9.1 °C 29.40 in /  995.5 hPa SE 9.0 mph /  14.5 km/h -999.0 mph /  -1607.7 km/h 96 % 0.00 in /  0 mm 0 W/m2
04:31 49.5 °F /  9.7 °C 48.4 °F /  9.1 °C 29.40 in /  995.5 hPa SE 9.0 mph /  14.5 km/h -999.0 mph /  -1607.7 km/h 96 % 0.00 in /  0 mm 0 W/m2
04:36 49.5 °F /  9.7 °C 48.4 °F /  9.1 °C 29.40 in /  995.5 hPa SE 9.0 mph /  14.5 km/h -999.0 mph /  -1607.7 km/h 96 % 0.00 in /  0 mm 0 W/m2
04:41 49.7 °F /  9.8 °C 48.6 °F /  9.2 °C 29.39 in /  995.1 hPa SE 10.0 mph /  16.1 km/h -999.0 mph /  -1607.7 km/h 96 % 0.00 in /  0 mm 0 W/m2
04:46 49.7 °F /  9.8 °C 48.6 °F /  9.2 °C 29.39 in /  995.1 hPa SE 10.0 mph /  16.1 km/h -999.0 mph /  -1607.7 km/h 96 % 0.00 in /  0 mm 0 W/m2
04:51 49.7 °F /  9.8 °C 48.6 °F /  9.2 °C 29.39 in /  995.1 hPa SE 10.0 mph /  16.1 km/h -999.0 mph /  -1607.7 km/h 96 % 0.00 in /  0 mm 0 W/m2
04:56 49.7 °F /  9.8 °C 48.6 °F /  9.2 °C 29.38 in /  994.8 hPa SE 11.0 mph /  17.7 km/h -999.0 mph /  -1607.7 km/h 96 % 0.01 in /  0.25 mm 0 W/m2
05:01 49.7 °F /  9.8 °C 48.6 °F /  9.2 °C 29.38 in /  994.8 hPa SE 11.0 mph /  17.7 km/h -999.0 mph /  -1607.7 km/h 96 % 0.01 in /  0.25 mm 0 W/m2
05:06 49.7 °F /  9.8 °C 48.6 °F /  9.2 °C 29.38 in /  994.8 hPa SE 11.0 mph /  17.7 km/h -999.0 mph /  -1607.7 km/h 96 % 0.01 in /  0.25 mm 0 W/m2
05:11 49.7 °F /  9.8 °C 48.9 °F /  9.4 °C 29.38 in /  994.8 hPa SE 10.0 mph /  16.1 km/h -999.0 mph /  -1607.7 km/h 97 % 0.01 in /  0.25 mm 0 W/m2
05:16 49.7 °F /  9.8 °C 48.9 °F /  9.4 °C 29.38 in /  994.8 hPa SE 10.0 mph /  16.1 km/h -999.0 mph /  -1607.7 km/h 97 % 0.01 in /  0.25 mm 0 W/m2
05:21 49.7 °F /  9.8 °C 48.9 °F /  9.4 °C 29.38 in /  994.8 hPa SE 10.0 mph /  16.1 km/h -999.0 mph /  -1607.7 km/h 97 % 0.01 in /  0.25 mm 0 W/m2
05:26 49.7 °F /  9.8 °C 48.6 °F /  9.2 °C 29.38 in /  994.8 hPa SE 10.0 mph /  16.1 km/h -999.0 mph /  -1607.7 km/h 96 % 0.01 in /  0.25 mm 0 W/m2
05:31 49.7 °F /  9.8 °C 48.6 °F /  9.2 °C 29.38 in /  994.8 hPa SE 10.0 mph /  16.1 km/h -999.0 mph /  -1607.7 km/h 96 % 0.01 in /  0.25 mm 0 W/m2
05:36 49.7 °F /  9.8 °C 48.6 °F /  9.2 °C 29.38 in /  994.8 hPa SE 10.0 mph /  16.1 km/h -999.0 mph /  -1607.7 km/h 96 % 0.01 in /  0.25 mm 0 W/m2
05:41 49.8 °F /  9.9 °C 48.7 °F /  9.3 °C 29.37 in /  994.5 hPa SSE 10.0 mph /  16.1 km/h -999.0 mph /  -1607.7 km/h 96 % 0.01 in /  0.25 mm 0 W/m2
05:46 49.8 °F /  9.9 °C 48.7 °F /  9.3 °C 29.37 in /  994.5 hPa SSE 10.0 mph /  16.1 km/h -999.0 mph /  -1607.7 km/h 96 % 0.01 in /  0.25 mm 0 W/m2
05:51 49.8 °F /  9.9 °C 48.7 °F /  9.3 °C 29.37 in /  994.5 hPa SSE 10.0 mph /  16.1 km/h -999.0 mph /  -1607.7 km/h 96 % 0.01 in /  0.25 mm 0 W/m2
05:56 49.9 °F /  9.9 °C 48.8 °F /  9.3 °C 29.37 in /  994.5 hPa SSE 9.0 mph /  14.5 km/h -999.0 mph /  -1607.7 km/h 96 % 0.00 in /  0 mm 0 W/m2
06:01 49.9 °F /  9.9 °C 48.8 °F /  9.3 °C 29.37 in /  994.5 hPa SSE 9.0 mph /  14.5 km/h -999.0 mph /  -1607.7 km/h 96 % 0.00 in /  0 mm 0 W/m2
06:06 49.9 °F /  9.9 °C 48.8 °F /  9.3 °C 29.37 in /  994.5 hPa SSE 9.0 mph /  14.5 km/h -999.0 mph /  -1607.7 km/h 96 % 0.00 in /  0 mm 0 W/m2
06:11 49.9 °F /  9.9 °C 48.8 °F /  9.3 °C 29.37 in /  994.5 hPa SSE 10.0 mph /  16.1 km/h -999.0 mph /  -1607.7 km/h 96 % 0.00 in /  0 mm 0 W/m2
06:16 49.9 °F /  9.9 °C 48.8 °F /  9.3 °C 29.37 in /  994.5 hPa SSE 10.0 mph /  16.1 km/h -999.0 mph /  -1607.7 km/h 96 % 0.00 in /  0 mm 0 W/m2
06:21 49.9 °F /  9.9 °C 48.8 °F /  9.3 °C 29.37 in /  994.5 hPa SSE 10.0 mph /  16.1 km/h -999.0 mph /  -1607.7 km/h 96 % 0.00 in /  0 mm 0 W/m2
06:26 50.1 °F /  10.1 °C 49.0 °F /  9.4 °C 29.36 in /  994.1 hPa SE 12.0 mph /  19.3 km/h -999.0 mph /  -1607.7 km/h 96 % 0.00 in /  0 mm 0 W/m2
06:31 50.1 °F /  10.1 °C 49.0 °F /  9.4 °C 29.36 in /  994.1 hPa SE 12.0 mph /  19.3 km/h -999.0 mph /  -1607.7 km/h 96 % 0.00 in /  0 mm 0 W/m2
06:36 50.1 °F /  10.1 °C 49.0 °F /  9.4 °C 29.36 in /  994.1 hPa SE 12.0 mph /  19.3 km/h -999.0 mph /  -1607.7 km/h 96 % 0.00 in /  0 mm 0 W/m2
06:41 50.2 °F /  10.1 °C 49.1 °F /  9.5 °C 29.36 in /  994.1 hPa SSE 12.0 mph /  19.3 km/h -999.0 mph /  -1607.7 km/h 96 % 0.00 in /  0 mm 0 W/m2
06:46 50.2 °F /  10.1 °C 49.1 °F /  9.5 °C 29.36 in /  994.1 hPa SSE 12.0 mph /  19.3 km/h -999.0 mph /  -1607.7 km/h 96 % 0.00 in /  0 mm 0 W/m2
06:51 50.2 °F /  10.1 °C 49.1 °F /  9.5 °C 29.36 in /  994.1 hPa SSE 12.0 mph /  19.3 km/h -999.0 mph /  -1607.7 km/h 96 % 0.00 in /  0 mm 0 W/m2
06:56 50.2 °F /  10.1 °C 48.8 °F /  9.3 °C 29.35 in /  993.8 hPa SE 11.0 mph /  17.7 km/h -999.0 mph /  -1607.7 km/h 95 % 0.00 in /  0 mm 0 W/m2
07:01 50.2 °F /  10.1 °C 48.8 °F /  9.3 °C 29.35 in /  993.8 hPa SE 11.0 mph /  17.7 km/h -999.0 mph /  -1607.7 km/h 95 % 0.00 in /  0 mm 0 W/m2
07:06 50.2 °F /  10.1 °C 48.8 °F /  9.3 °C 29.35 in /  993.8 hPa SE 11.0 mph /  17.7 km/h -999.0 mph /  -1607.7 km/h 95 % 0.00 in /  0 mm 0 W/m2
07:11 50.3 °F /  10.2 °C 48.9 °F /  9.4 °C 29.34 in /  993.5 hPa SE 10.0 mph /  16.1 km/h -999.0 mph /  -1607.7 km/h 95 % 0.00 in /  0 mm 0 W/m2
07:16 50.3 °F /  10.2 °C 48.9 °F /  9.4 °C 29.34 in /  993.5 hPa SE 10.0 mph /  16.1 km/h -999.0 mph /  -1607.7 km/h 95 % 0.00 in /  0 mm 0 W/m2
07:21 50.3 °F /  10.2 °C 48.9 °F /  9.4 °C 29.34 in /  993.5 hPa SE 10.0 mph /  16.1 km/h -999.0 mph /  -1607.7 km/h 95 % 0.00 in /  0 mm 0 W/m2
07:26 50.4 °F /  10.2 °C 48.7 °F /  9.3 °C 29.33 in /  993.1 hPa SE 11.0 mph /  17.7 km/h -999.0 mph /  -1607.7 km/h 94 % 0.00 in /  0 mm 0 W/m2
07:31 50.4 °F /  10.2 °C 48.7 °F /  9.3 °C 29.33 in /  993.1 hPa SE 11.0 mph /  17.7 km/h -999.0 mph /  -1607.7 km/h 94 % 0.00 in /  0 mm 0 W/m2
07:36 50.4 °F /  10.2 °C 48.7 °F /  9.3 °C 29.33 in /  993.1 hPa SE 11.0 mph /  17.7 km/h -999.0 mph /  -1607.7 km/h 94 % 0.00 in /  0 mm 0 W/m2
07:41 50.6 °F /  10.3 °C 48.7 °F /  9.3 °C 29.34 in /  993.5 hPa SSE 12.0 mph /  19.3 km/h -999.0 mph /  -1607.7 km/h 93 % 0.00 in /  0 mm 0 W/m2
07:46 50.6 °F /  10.3 °C 48.7 °F /  9.3 °C 29.34 in /  993.5 hPa SSE 12.0 mph /  19.3 km/h -999.0 mph /  -1607.7 km/h 93 % 0.00 in /  0 mm 0 W/m2
07:51 50.6 °F /  10.3 °C 48.7 °F /  9.3 °C 29.34 in /  993.5 hPa SSE 12.0 mph /  19.3 km/h -999.0 mph /  -1607.7 km/h 93 % 0.00 in /  0 mm 0 W/m2
07:56 50.7 °F /  10.4 °C 48.5 °F /  9.2 °C 29.33 in /  993.1 hPa SE 11.0 mph /  17.7 km/h -999.0 mph /  -1607.7 km/h 92 % 0.00 in /  0 mm 0 W/m2
08:01 50.7 °F /  10.4 °C 48.5 °F /  9.2 °C 29.33 in /  993.1 hPa SE 11.0 mph /  17.7 km/h -999.0 mph /  -1607.7 km/h 92 % 0.00 in /  0 mm 0 W/m2
08:06 50.7 °F /  10.4 °C 48.5 °F /  9.2 °C 29.33 in /  993.1 hPa SE 11.0 mph /  17.7 km/h -999.0 mph /  -1607.7 km/h 92 % 0.00 in /  0 mm 0 W/m2
08:11 50.6 °F /  10.3 °C 48.7 °F /  9.3 °C 29.33 in /  993.1 hPa SE 11.0 mph /  17.7 km/h -999.0 mph /  -1607.7 km/h 93 % 0.00 in /  0 mm 0 W/m2
08:16 50.6 °F /  10.3 °C 48.7 °F /  9.3 °C 29.33 in /  993.1 hPa SE 11.0 mph /  17.7 km/h -999.0 mph /  -1607.7 km/h 93 % 0.00 in /  0 mm 0 W/m2
08:21 50.6 °F /  10.3 °C 48.7 °F /  9.3 °C 29.33 in /  993.1 hPa SE 11.0 mph /  17.7 km/h -999.0 mph /  -1607.7 km/h 93 % 0.00 in /  0 mm 0 W/m2
08:26 50.3 °F /  10.2 °C 48.6 °F /  9.2 °C 29.33 in /  993.1 hPa SE 11.0 mph /  17.7 km/h -999.0 mph /  -1607.7 km/h 94 % 0.01 in /  0.25 mm 3 W/m2
08:31 50.3 °F /  10.2 °C 48.6 °F /  9.2 °C 29.33 in /  993.1 hPa SE 11.0 mph /  17.7 km/h -999.0 mph /  -1607.7 km/h 94 % 0.01 in /  0.25 mm 3 W/m2
08:36 50.3 °F /  10.2 °C 48.6 °F /  9.2 °C 29.33 in /  993.1 hPa SE 11.0 mph /  17.7 km/h -999.0 mph /  -1607.7 km/h 94 % 0.01 in /  0.25 mm 3 W/m2
08:41 50.0 °F /  10 °C 48.3 °F /  9.1 °C 29.32 in /  992.8 hPa SSE 12.0 mph /  19.3 km/h -999.0 mph /  -1607.7 km/h 94 % 0.01 in /  0.25 mm 10 W/m2
08:46 50.0 °F /  10 °C 48.3 °F /  9.1 °C 29.32 in /  992.8 hPa SSE 12.0 mph /  19.3 km/h -999.0 mph /  -1607.7 km/h 94 % 0.01 in /  0.25 mm 10 W/m2
08:51 50.0 °F /  10 °C 48.3 °F /  9.1 °C 29.32 in /  992.8 hPa SSE 12.0 mph /  19.3 km/h -999.0 mph /  -1607.7 km/h 94 % 0.01 in /  0.25 mm 10 W/m2
08:56 50.1 °F /  10.1 °C 48.2 °F /  9 °C 29.32 in /  992.8 hPa SSE 13.0 mph /  20.9 km/h -999.0 mph /  -1607.7 km/h 93 % 0.01 in /  0.25 mm 11 W/m2
09:01 50.1 °F /  10.1 °C 48.2 °F /  9 °C 29.32 in /  992.8 hPa SSE 13.0 mph /  20.9 km/h -999.0 mph /  -1607.7 km/h 93 % 0.01 in /  0.25 mm 11 W/m2
09:06 50.1 °F /  10.1 °C 48.2 °F /  9 °C 29.32 in /  992.8 hPa SSE 13.0 mph /  20.9 km/h -999.0 mph /  -1607.7 km/h 93 % 0.01 in /  0.25 mm 11 W/m2
09:11 50.3 °F /  10.2 °C 48.1 °F /  8.9 °C 29.31 in /  992.4 hPa SSE 13.0 mph /  20.9 km/h -999.0 mph /  -1607.7 km/h 92 % 0.01 in /  0.25 mm 18 W/m2
09:16 50.3 °F /  10.2 °C 48.1 °F /  8.9 °C 29.31 in /  992.4 hPa SSE 13.0 mph /  20.9 km/h -999.0 mph /  -1607.7 km/h 92 % 0.01 in /  0.25 mm 18 W/m2
09:21 50.3 °F /  10.2 °C 48.1 °F /  8.9 °C 29.31 in /  992.4 hPa SSE 13.0 mph /  20.9 km/h -999.0 mph /  -1607.7 km/h 92 % 0.01 in /  0.25 mm 18 W/m2
09:26 50.5 °F /  10.3 °C 48.0 °F /  8.9 °C 29.31 in /  992.4 hPa SSE 13.0 mph /  20.9 km/h -999.0 mph /  -1607.7 km/h 91 % 0.00 in /  0 mm 25 W/m2
09:31 50.5 °F /  10.3 °C 48.0 °F /  8.9 °C 29.31 in /  992.4 hPa SSE 13.0 mph /  20.9 km/h -999.0 mph /  -1607.7 km/h 91 % 0.00 in /  0 mm 25 W/m2
09:36 50.5 °F /  10.3 °C 48.0 °F /  8.9 °C 29.31 in /  992.4 hPa SSE 13.0 mph /  20.9 km/h -999.0 mph /  -1607.7 km/h 91 % 0.00 in /  0 mm 25 W/m2
09:41 50.6 °F /  10.3 °C 48.1 °F /  8.9 °C 29.31 in /  992.4 hPa SSE 13.0 mph /  20.9 km/h -999.0 mph /  -1607.7 km/h 91 % 0.00 in /  0 mm 22 W/m2
09:46 50.6 °F /  10.3 °C 48.1 °F /  8.9 °C 29.31 in /  992.4 hPa SSE 13.0 mph /  20.9 km/h -999.0 mph /  -1607.7 km/h 91 % 0.00 in /  0 mm 22 W/m2
09:51 50.6 °F /  10.3 °C 48.1 °F /  8.9 °C 29.31 in /  992.4 hPa SSE 13.0 mph /  20.9 km/h -999.0 mph /  -1607.7 km/h 91 % 0.00 in /  0 mm 22 W/m2
09:56 50.6 °F /  10.3 °C 48.1 °F /  8.9 °C 29.31 in /  992.4 hPa SSE 12.0 mph /  19.3 km/h -999.0 mph /  -1607.7 km/h 91 % 0.00 in /  0 mm 24 W/m2
10:01 50.6 °F /  10.3 °C 48.1 °F /  8.9 °C 29.31 in /  992.4 hPa SSE 12.0 mph /  19.3 km/h -999.0 mph /  -1607.7 km/h 91 % 0.00 in /  0 mm 24 W/m2
10:06 50.6 °F /  10.3 °C 48.1 °F /  8.9 °C 29.31 in /  992.4 hPa SSE 12.0 mph /  19.3 km/h -999.0 mph /  -1607.7 km/h 91 % 0.00 in /  0 mm 24 W/m2
10:11 50.6 °F /  10.3 °C 48.1 °F /  8.9 °C 29.30 in /  992.1 hPa SSE 11.0 mph /  17.7 km/h -999.0 mph /  -1607.7 km/h 91 % 0.00 in /  0 mm 43 W/m2
10:16 50.6 °F /  10.3 °C 48.1 °F /  8.9 °C 29.30 in /  992.1 hPa SSE 11.0 mph /  17.7 km/h -999.0 mph /  -1607.7 km/h 91 % 0.00 in /  0 mm 43 W/m2
10:21 50.6 °F /  10.3 °C 48.1 °F /  8.9 °C 29.30 in /  992.1 hPa SSE 11.0 mph /  17.7 km/h -999.0 mph /  -1607.7 km/h 91 % 0.00 in /  0 mm 43 W/m2
10:26 50.6 °F /  10.3 °C 48.1 °F /  8.9 °C 29.30 in /  992.1 hPa SSE 12.0 mph /  19.3 km/h -999.0 mph /  -1607.7 km/h 91 % 0.00 in /  0 mm 104 W/m2
10:31 50.6 °F /  10.3 °C 48.1 °F /  8.9 °C 29.30 in /  992.1 hPa SSE 12.0 mph /  19.3 km/h -999.0 mph /  -1607.7 km/h 91 % 0.00 in /  0 mm 104 W/m2
10:36 50.6 °F /  10.3 °C 48.1 °F /  8.9 °C 29.30 in /  992.1 hPa SSE 12.0 mph /  19.3 km/h -999.0 mph /  -1607.7 km/h 91 % 0.00 in /  0 mm 104 W/m2
10:41 50.8 °F /  10.4 °C 48.3 °F /  9.1 °C 29.29 in /  991.8 hPa SSE 12.0 mph /  19.3 km/h -999.0 mph /  -1607.7 km/h 91 % 0.00 in /  0 mm 92 W/m2
10:46 50.8 °F /  10.4 °C 48.3 °F /  9.1 °C 29.29 in /  991.8 hPa SSE 12.0 mph /  19.3 km/h -999.0 mph /  -1607.7 km/h 91 % 0.00 in /  0 mm 92 W/m2
10:51 50.8 °F /  10.4 °C 48.3 °F /  9.1 °C 29.29 in /  991.8 hPa SSE 12.0 mph /  19.3 km/h -999.0 mph /  -1607.7 km/h 91 % 0.00 in /  0 mm 92 W/m2
10:56 50.7 °F /  10.4 °C 48.5 °F /  9.2 °C 29.28 in /  991.4 hPa SSE 12.0 mph /  19.3 km/h -999.0 mph /  -1607.7 km/h 92 % 0.00 in /  0 mm 79 W/m2
11:01 50.7 °F /  10.4 °C 48.5 °F /  9.2 °C 29.28 in /  991.4 hPa SSE 12.0 mph /  19.3 km/h -999.0 mph /  -1607.7 km/h 92 % 0.00 in /  0 mm 79 W/m2
11:06 50.7 °F /  10.4 °C 48.5 °F /  9.2 °C 29.28 in /  991.4 hPa SSE 12.0 mph /  19.3 km/h -999.0 mph /  -1607.7 km/h 92 % 0.00 in /  0 mm 79 W/m2
11:11 50.6 °F /  10.3 °C 48.1 °F /  8.9 °C 29.27 in /  991.1 hPa SSE 14.0 mph /  22.5 km/h -999.0 mph /  -1607.7 km/h 91 % 0.00 in /  0 mm 61 W/m2
11:16 50.6 °F /  10.3 °C 48.1 °F /  8.9 °C 29.27 in /  991.1 hPa SSE 14.0 mph /  22.5 km/h -999.0 mph /  -1607.7 km/h 91 % 0.00 in /  0 mm 61 W/m2
11:21 50.6 °F /  10.3 °C 48.1 °F /  8.9 °C 29.27 in /  991.1 hPa SSE 14.0 mph /  22.5 km/h -999.0 mph /  -1607.7 km/h 91 % 0.00 in /  0 mm 61 W/m2
11:26 50.6 °F /  10.3 °C 48.1 °F /  8.9 °C 29.26 in /  990.7 hPa SSE 16.0 mph /  25.7 km/h -999.0 mph /  -1607.7 km/h 91 % 0.00 in /  0 mm 71 W/m2
11:31 50.6 °F /  10.3 °C 48.1 °F /  8.9 °C 29.26 in /  990.7 hPa SSE 16.0 mph /  25.7 km/h -999.0 mph /  -1607.7 km/h 91 % 0.00 in /  0 mm 71 W/m2
11:36 50.6 °F /  10.3 °C 48.1 °F /  8.9 °C 29.26 in /  990.7 hPa SSE 16.0 mph /  25.7 km/h -999.0 mph /  -1607.7 km/h 91 % 0.00 in /  0 mm 71 W/m2
11:41 50.8 °F /  10.4 °C 48.3 °F /  9.1 °C 29.26 in /  990.7 hPa SSE 14.0 mph /  22.5 km/h -999.0 mph /  -1607.7 km/h 91 % 0.00 in /  0 mm 82 W/m2
11:46 50.8 °F /  10.4 °C 48.3 °F /  9.1 °C 29.26 in /  990.7 hPa SSE 14.0 mph /  22.5 km/h -999.0 mph /  -1607.7 km/h 91 % 0.00 in /  0 mm 82 W/m2
11:51 50.8 °F /  10.4 °C 48.3 °F /  9.1 °C 29.26 in /  990.7 hPa SSE 14.0 mph /  22.5 km/h -999.0 mph /  -1607.7 km/h 91 % 0.00 in /  0 mm 82 W/m2
11:56 50.7 °F /  10.4 °C 48.2 °F /  9 °C 29.25 in /  990.4 hPa SSE 14.0 mph /  22.5 km/h -999.0 mph /  -1607.7 km/h 91 % 0.00 in /  0 mm 46 W/m2
12:01 50.7 °F /  10.4 °C 48.2 °F /  9 °C 29.25 in /  990.4 hPa SSE 14.0 mph /  22.5 km/h -999.0 mph /  -1607.7 km/h 91 % 0.00 in /  0 mm 46 W/m2
12:06 50.7 °F /  10.4 °C 48.2 °F /  9 °C 29.25 in /  990.4 hPa SSE 14.0 mph /  22.5 km/h -999.0 mph /  -1607.7 km/h 91 % 0.00 in /  0 mm 46 W/m2
12:11 50.9 °F /  10.5 °C 48.4 °F /  9.1 °C 29.24 in /  990.1 hPa SSE 14.0 mph /  22.5 km/h -999.0 mph /  -1607.7 km/h 91 % 0.00 in /  0 mm 68 W/m2
12:16 50.9 °F /  10.5 °C 48.4 °F /  9.1 °C 29.24 in /  990.1 hPa SSE 14.0 mph /  22.5 km/h -999.0 mph /  -1607.7 km/h 91 % 0.00 in /  0 mm 68 W/m2
12:21 50.9 °F /  10.5 °C 48.4 °F /  9.1 °C 29.24 in /  990.1 hPa SSE 14.0 mph /  22.5 km/h -999.0 mph /  -1607.7 km/h 91 % 0.00 in /  0 mm 68 W/m2
12:26 51.2 °F /  10.7 °C 48.4 °F /  9.1 °C 29.24 in /  990.1 hPa SSE 14.0 mph /  22.5 km/h -999.0 mph /  -1607.7 km/h 90 % 0.00 in /  0 mm 86 W/m2
12:31 51.2 °F /  10.7 °C 48.4 °F /  9.1 °C 29.24 in /  990.1 hPa SSE 14.0 mph /  22.5 km/h -999.0 mph /  -1607.7 km/h 90 % 0.00 in /  0 mm 86 W/m2
12:36 51.2 °F /  10.7 °C 48.4 °F /  9.1 °C 29.24 in /  990.1 hPa SSE 14.0 mph /  22.5 km/h -999.0 mph /  -1607.7 km/h 90 % 0.00 in /  0 mm 86 W/m2
12:41 51.4 °F /  10.8 °C 48.6 °F /  9.2 °C 29.24 in /  990.1 hPa SSE 14.0 mph /  22.5 km/h -999.0 mph /  -1607.7 km/h 90 % 0.00 in /  0 mm 58 W/m2
12:46 51.4 °F /  10.8 °C 48.6 °F /  9.2 °C 29.24 in /  990.1 hPa SSE 14.0 mph /  22.5 km/h -999.0 mph /  -1607.7 km/h 90 % 0.00 in /  0 mm 58 W/m2
12:51 51.4 °F /  10.8 °C 48.6 °F /  9.2 °C 29.24 in /  990.1 hPa SSE 14.0 mph /  22.5 km/h -999.0 mph /  -1607.7 km/h 90 % 0.00 in /  0 mm 58 W/m2
12:56 51.5 °F /  10.8 °C 48.7 °F /  9.3 °C 29.23 in /  989.7 hPa SSE 14.0 mph /  22.5 km/h -999.0 mph /  -1607.7 km/h 90 % 0.00 in /  0 mm 32 W/m2
13:01 51.5 °F /  10.8 °C 48.7 °F /  9.3 °C 29.23 in /  989.7 hPa SSE 14.0 mph /  22.5 km/h -999.0 mph /  -1607.7 km/h 90 % 0.00 in /  0 mm 32 W/m2
13:06 51.5 °F /  10.8 °C 48.7 °F /  9.3 °C 29.23 in /  989.7 hPa SSE 14.0 mph /  22.5 km/h -999.0 mph /  -1607.7 km/h 90 % 0.00 in /  0 mm 32 W/m2
13:11 51.6 °F /  10.9 °C 48.8 °F /  9.3 °C 29.23 in /  989.7 hPa SSE 14.0 mph /  22.5 km/h -999.0 mph /  -1607.7 km/h 90 % 0.00 in /  0 mm 41 W/m2
13:16 51.6 °F /  10.9 °C 48.8 °F /  9.3 °C 29.23 in /  989.7 hPa SSE 14.0 mph /  22.5 km/h -999.0 mph /  -1607.7 km/h 90 % 0.00 in /  0 mm 41 W/m2
13:21 51.6 °F /  10.9 °C 48.8 °F /  9.3 °C 29.23 in /  989.7 hPa SSE 14.0 mph /  22.5 km/h -999.0 mph /  -1607.7 km/h 90 % 0.00 in /  0 mm 41 W/m2
13:26 51.7 °F /  10.9 °C 48.6 °F /  9.2 °C 29.22 in /  989.4 hPa SSE 12.0 mph /  19.3 km/h -999.0 mph /  -1607.7 km/h 89 % 0.00 in /  0 mm 54 W/m2
13:31 51.7 °F /  10.9 °C 48.6 °F /  9.2 °C 29.22 in /  989.4 hPa SSE 12.0 mph /  19.3 km/h -999.0 mph /  -1607.7 km/h 89 % 0.00 in /  0 mm 54 W/m2
13:36 51.7 °F /  10.9 °C 48.6 °F /  9.2 °C 29.22 in /  989.4 hPa SSE 12.0 mph /  19.3 km/h -999.0 mph /  -1607.7 km/h 89 % 0.00 in /  0 mm 54 W/m2
13:41 51.8 °F /  11 °C 48.7 °F /  9.3 °C 29.21 in /  989.1 hPa SE 12.0 mph /  19.3 km/h -999.0 mph /  -1607.7 km/h 89 % 0.00 in /  0 mm 31 W/m2
13:46 51.8 °F /  11 °C 48.7 °F /  9.3 °C 29.21 in /  989.1 hPa SE 12.0 mph /  19.3 km/h -999.0 mph /  -1607.7 km/h 89 % 0.00 in /  0 mm 31 W/m2
13:51 51.8 °F /  11 °C 48.7 °F /  9.3 °C 29.21 in /  989.1 hPa SE 12.0 mph /  19.3 km/h -999.0 mph /  -1607.7 km/h 89 % 0.00 in /  0 mm 31 W/m2
13:56 51.8 °F /  11 °C 48.7 °F /  9.3 °C 29.21 in /  989.1 hPa SSE 12.0 mph /  19.3 km/h -999.0 mph /  -1607.7 km/h 89 % 0.00 in /  0 mm 16 W/m2
14:01 51.8 °F /  11 °C 48.7 °F /  9.3 °C 29.21 in /  989.1 hPa SSE 12.0 mph /  19.3 km/h -999.0 mph /  -1607.7 km/h 89 % 0.00 in /  0 mm 16 W/m2
14:06 51.8 °F /  11 °C 48.7 °F /  9.3 °C 29.21 in /  989.1 hPa SSE 12.0 mph /  19.3 km/h -999.0 mph /  -1607.7 km/h 89 % 0.00 in /  0 mm 16 W/m2
14:11 51.6 °F /  10.9 °C 48.8 °F /  9.3 °C 29.21 in /  989.1 hPa SSE 14.0 mph /  22.5 km/h -999.0 mph /  -1607.7 km/h 90 % 0.00 in /  0 mm 13 W/m2
14:16 51.6 °F /  10.9 °C 48.8 °F /  9.3 °C 29.21 in /  989.1 hPa SSE 14.0 mph /  22.5 km/h -999.0 mph /  -1607.7 km/h 90 % 0.00 in /  0 mm 13 W/m2
14:21 51.6 °F /  10.9 °C 48.8 °F /  9.3 °C 29.21 in /  989.1 hPa SSE 14.0 mph /  22.5 km/h -999.0 mph /  -1607.7 km/h 90 % 0.00 in /  0 mm 13 W/m2
14:26 51.3 °F /  10.7 °C 48.8 °F /  9.3 °C 29.21 in /  989.1 hPa SE 12.0 mph /  19.3 km/h -999.0 mph /  -1607.7 km/h 91 % 0.00 in /  0 mm 13 W/m2
14:31 51.3 °F /  10.7 °C 48.8 °F /  9.3 °C 29.21 in /  989.1 hPa SE 12.0 mph /  19.3 km/h -999.0 mph /  -1607.7 km/h 91 % 0.00 in /  0 mm 13 W/m2
14:36 51.3 °F /  10.7 °C 48.8 °F /  9.3 °C 29.21 in /  989.1 hPa SE 12.0 mph /  19.3 km/h -999.0 mph /  -1607.7 km/h 91 % 0.00 in /  0 mm 13 W/m2
14:41 51.0 °F /  10.6 °C 48.8 °F /  9.3 °C 29.20 in /  988.7 hPa SSE 11.0 mph /  17.7 km/h -999.0 mph /  -1607.7 km/h 92 % 0.00 in /  0 mm 17 W/m2
14:46 51.0 °F /  10.6 °C 48.8 °F /  9.3 °C 29.20 in /  988.7 hPa SSE 11.0 mph /  17.7 km/h -999.0 mph /  -1607.7 km/h 92 % 0.00 in /  0 mm 17 W/m2
14:51 51.0 °F /  10.6 °C 48.8 °F /  9.3 °C 29.20 in /  988.7 hPa SSE 11.0 mph /  17.7 km/h -999.0 mph /  -1607.7 km/h 92 % 0.00 in /  0 mm 17 W/m2
14:56 51.0 °F /  10.6 °C 48.5 °F /  9.2 °C 29.21 in /  989.1 hPa SE 12.0 mph /  19.3 km/h -999.0 mph /  -1607.7 km/h 91 % 0.00 in /  0 mm 45 W/m2
15:01 51.0 °F /  10.6 °C 48.5 °F /  9.2 °C 29.21 in /  989.1 hPa SE 12.0 mph /  19.3 km/h -999.0 mph /  -1607.7 km/h 91 % 0.00 in /  0 mm 45 W/m2
15:06 51.0 °F /  10.6 °C 48.5 °F /  9.2 °C 29.21 in /  989.1 hPa SE 12.0 mph /  19.3 km/h -999.0 mph /  -1607.7 km/h 91 % 0.00 in /  0 mm 45 W/m2
15:11 51.2 °F /  10.7 °C 48.4 °F /  9.1 °C 29.20 in /  988.7 hPa SE 12.0 mph /  19.3 km/h -999.0 mph /  -1607.7 km/h 90 % 0.00 in /  0 mm 22 W/m2
15:40 51.3 °F /  10.7 °C 47.9 °F /  8.8 °C 29.21 in /  989.1 hPa ESE 10.0 mph /  16.1 km/h 10.0 mph /  16.1 km/h 88 % 0.00 in /  0 mm 9 W/m2
15:50 51.4 °F /  10.8 °C 47.7 °F /  8.7 °C 29.20 in /  988.7 hPa SSE 11.0 mph /  17.7 km/h 13.0 mph /  20.9 km/h 87 % 0.00 in /  0 mm 40 W/m2
15:55 51.5 °F /  10.8 °C 47.8 °F /  8.8 °C 29.20 in /  988.7 hPa ESE 12.0 mph /  19.3 km/h 13.0 mph /  20.9 km/h 87 % 0.00 in /  0 mm 46 W/m2
16:00 51.5 °F /  10.8 °C 47.5 °F /  8.6 °C 29.20 in /  988.7 hPa SSE 12.0 mph /  19.3 km/h 12.0 mph /  19.3 km/h 86 % 0.00 in /  0 mm 42 W/m2
16:05 51.6 °F /  10.9 °C 47.5 °F /  8.6 °C 29.20 in /  988.7 hPa SSE 12.0 mph /  19.3 km/h 12.0 mph /  19.3 km/h 86 % 0.00 in /  0 mm 44 W/m2
16:10 51.6 °F /  10.9 °C 47.5 °F /  8.6 °C 29.20 in /  988.7 hPa SSE 11.0 mph /  17.7 km/h 11.0 mph /  17.7 km/h 86 % 0.00 in /  0 mm 32 W/m2
16:15 51.7 °F /  10.9 °C 47.6 °F /  8.7 °C 29.20 in /  988.7 hPa SE 11.0 mph /  17.7 km/h 12.0 mph /  19.3 km/h 86 % 0.00 in /  0 mm 21 W/m2
16:20 51.7 °F /  10.9 °C 47.3 °F /  8.5 °C 29.20 in /  988.7 hPa SE 13.0 mph /  20.9 km/h 21.0 mph /  33.8 km/h 85 % 0.00 in /  0 mm 7 W/m2
16:25 51.7 °F /  10.9 °C 47.3 °F /  8.5 °C 29.20 in /  988.7 hPa SSE 13.0 mph /  20.9 km/h 21.0 mph /  33.8 km/h 85 % 0.00 in /  0 mm 7 W/m2
16:30 51.7 °F /  10.9 °C 47.3 °F /  8.5 °C 29.20 in /  988.7 hPa South 12.0 mph /  19.3 km/h 12.0 mph /  19.3 km/h 85 % 0.00 in /  0 mm 7 W/m2
16:35 51.6 °F /  10.9 °C 47.5 °F /  8.6 °C 29.20 in /  988.7 hPa SSE 10.0 mph /  16.1 km/h 16.0 mph /  25.7 km/h 86 % 0.00 in /  0 mm 12 W/m2
16:45 51.8 °F /  11 °C 47.4 °F /  8.6 °C 29.20 in /  988.7 hPa South 14.0 mph /  22.5 km/h 21.0 mph /  33.8 km/h 85 % 0.00 in /  0 mm 14 W/m2
16:50 51.7 °F /  10.9 °C 47.3 °F /  8.5 °C 29.20 in /  988.7 hPa SE 12.0 mph /  19.3 km/h 21.0 mph /  33.8 km/h 85 % 0.00 in /  0 mm 14 W/m2
17:00 51.7 °F /  10.9 °C 47.3 °F /  8.5 °C 29.20 in /  988.7 hPa South 12.0 mph /  19.3 km/h 12.0 mph /  19.3 km/h 85 % 0.00 in /  0 mm 0 W/m2
17:05 51.8 °F /  11 °C 47.1 °F /  8.4 °C 29.19 in /  988.4 hPa SSE 12.0 mph /  19.3 km/h 21.0 mph /  33.8 km/h 84 % 0.00 in /  0 mm 0 W/m2
17:10 51.8 °F /  11 °C 47.1 °F /  8.4 °C 29.20 in /  988.7 hPa SE 12.0 mph /  19.3 km/h 21.0 mph /  33.8 km/h 84 % 0.00 in /  0 mm 0 W/m2
17:15 51.9 °F /  11.1 °C 47.2 °F /  8.4 °C 29.20 in /  988.7 hPa South 14.0 mph /  22.5 km/h 21.0 mph /  33.8 km/h 84 % 0.00 in /  0 mm 0 W/m2
17:20 51.9 °F /  11.1 °C 47.2 °F /  8.4 °C 29.20 in /  988.7 hPa South 14.0 mph /  22.5 km/h 21.0 mph /  33.8 km/h 84 % 0.00 in /  0 mm 0 W/m2
17:30 51.8 °F /  11 °C 47.1 °F /  8.4 °C 29.19 in /  988.4 hPa SSE 11.0 mph /  17.7 km/h 21.0 mph /  33.8 km/h 84 % 0.00 in /  0 mm 0 W/m2
17:35 51.7 °F /  10.9 °C 47.0 °F /  8.3 °C 29.19 in /  988.4 hPa South 11.0 mph /  17.7 km/h 21.0 mph /  33.8 km/h 84 % 0.00 in /  0 mm 0 W/m2
17:40 51.7 °F /  10.9 °C 47.0 °F /  8.3 °C 29.19 in /  988.4 hPa SSE 12.0 mph /  19.3 km/h 21.0 mph /  33.8 km/h 84 % 0.00 in /  0 mm 0 W/m2
17:45 51.6 °F /  10.9 °C 47.2 °F /  8.4 °C 29.20 in /  988.7 hPa SSE 13.0 mph /  20.9 km/h 21.0 mph /  33.8 km/h 85 % 0.00 in /  0 mm 0 W/m2
17:50 51.6 °F /  10.9 °C 47.2 °F /  8.4 °C 29.19 in /  988.4 hPa SE 13.0 mph /  20.9 km/h 13.0 mph /  20.9 km/h 85 % 0.00 in /  0 mm 0 W/m2
18:00 51.6 °F /  10.9 °C 47.2 °F /  8.4 °C 29.19 in /  988.4 hPa SSE 13.0 mph /  20.9 km/h 13.0 mph /  20.9 km/h 85 % 0.00 in /  0 mm 0 W/m2
18:05 51.6 °F /  10.9 °C 47.2 °F /  8.4 °C 29.19 in /  988.4 hPa SE 13.0 mph /  20.9 km/h 15.0 mph /  24.1 km/h 85 % 0.00 in /  0 mm 0 W/m2
18:10 51.6 °F /  10.9 °C 47.5 °F /  8.6 °C 29.19 in /  988.4 hPa SE 14.0 mph /  22.5 km/h 14.0 mph /  22.5 km/h 86 % 0.00 in /  0 mm 0 W/m2
18:15 51.4 °F /  10.8 °C 47.4 °F /  8.6 °C 29.19 in /  988.4 hPa South 13.0 mph /  20.9 km/h 21.0 mph /  33.8 km/h 86 % 0.00 in /  0 mm 0 W/m2
18:20 51.3 °F /  10.7 °C 47.3 °F /  8.5 °C 29.18 in /  988 hPa South 11.0 mph /  17.7 km/h 21.0 mph /  33.8 km/h 86 % 0.00 in /  0 mm 0 W/m2
18:25 51.3 °F /  10.7 °C 47.6 °F /  8.7 °C 29.18 in /  988 hPa SSE 12.0 mph /  19.3 km/h 21.0 mph /  33.8 km/h 87 % 0.00 in /  0 mm 0 W/m2
18:35 51.3 °F /  10.7 °C 47.6 °F /  8.7 °C 29.18 in /  988 hPa SSE 12.0 mph /  19.3 km/h 21.0 mph /  33.8 km/h 87 % 0.00 in /  0 mm 0 W/m2
18:40 51.3 °F /  10.7 °C 47.6 °F /  8.7 °C 29.18 in /  988 hPa SSE 12.0 mph /  19.3 km/h 21.0 mph /  33.8 km/h 87 % 0.00 in /  0 mm 0 W/m2
18:45 51.4 °F /  10.8 °C 47.7 °F /  8.7 °C 29.18 in /  988 hPa SSE 13.0 mph /  20.9 km/h 21.0 mph /  33.8 km/h 87 % 0.00 in /  0 mm 0 W/m2
18:55 51.4 °F /  10.8 °C 47.4 °F /  8.6 °C 29.19 in /  988.4 hPa SSE 13.0 mph /  20.9 km/h 21.0 mph /  33.8 km/h 86 % 0.00 in /  0 mm 0 W/m2
19:00 51.5 °F /  10.8 °C 47.5 °F /  8.6 °C 29.19 in /  988.4 hPa South 14.0 mph /  22.5 km/h 14.0 mph /  22.5 km/h 86 % 0.00 in /  0 mm 0 W/m2
19:09 51.6 °F /  10.9 °C 47.2 °F /  8.4 °C 29.19 in /  988.4 hPa SSE 11.0 mph /  17.7 km/h 21.0 mph /  33.8 km/h 85 % 0.00 in /  0 mm 0 W/m2
19:15 51.7 °F /  10.9 °C 47.3 °F /  8.5 °C 29.19 in /  988.4 hPa South 12.0 mph /  19.3 km/h 21.0 mph /  33.8 km/h 85 % 0.00 in /  0 mm 0 W/m2
19:20 51.8 °F /  11 °C 47.4 °F /  8.6 °C 29.19 in /  988.4 hPa South 12.0 mph /  19.3 km/h 12.0 mph /  19.3 km/h 85 % 0.00 in /  0 mm 0 W/m2
19:25 51.9 °F /  11.1 °C 47.5 °F /  8.6 °C 29.19 in /  988.4 hPa SSE 12.0 mph /  19.3 km/h 13.0 mph /  20.9 km/h 85 % 0.00 in /  0 mm 0 W/m2
19:30 51.9 °F /  11.1 °C 47.2 °F /  8.4 °C 29.19 in /  988.4 hPa South 13.0 mph /  20.9 km/h 13.0 mph /  20.9 km/h 84 % 0.00 in /  0 mm 0 W/m2
19:40 51.9 °F /  11.1 °C 47.2 °F /  8.4 °C 29.19 in /  988.4 hPa South 13.0 mph /  20.9 km/h 13.0 mph /  20.9 km/h 84 % 0.00 in /  0 mm 0 W/m2
19:45 51.9 °F /  11.1 °C 47.2 °F /  8.4 °C 29.19 in /  988.4 hPa East 14.0 mph /  22.5 km/h 14.0 mph /  22.5 km/h 84 % 0.00 in /  0 mm 0 W/m2
19:50 51.9 °F /  11.1 °C 47.2 °F /  8.4 °C 29.19 in /  988.4 hPa ESE 13.0 mph /  20.9 km/h 13.0 mph /  20.9 km/h 84 % 0.00 in /  0 mm 0 W/m2
19:55 51.9 °F /  11.1 °C 47.2 °F /  8.4 °C 29.19 in /  988.4 hPa SE 13.0 mph /  20.9 km/h 16.0 mph /  25.7 km/h 84 % 0.00 in /  0 mm 0 W/m2
20:00 52.0 °F /  11.1 °C 47.3 °F /  8.5 °C 29.19 in /  988.4 hPa SE 14.0 mph /  22.5 km/h 14.0 mph /  22.5 km/h 84 % 0.00 in /  0 mm 0 W/m2
20:05 51.9 °F /  11.1 °C 46.9 °F /  8.3 °C 29.19 in /  988.4 hPa South 15.0 mph /  24.1 km/h 18.0 mph /  29 km/h 83 % 0.00 in /  0 mm 0 W/m2
20:15 51.9 °F /  11.1 °C 47.2 °F /  8.4 °C 29.19 in /  988.4 hPa South 13.0 mph /  20.9 km/h 21.0 mph /  33.8 km/h 84 % 0.00 in /  0 mm 0 W/m2
20:20 51.7 °F /  10.9 °C 47.3 °F /  8.5 °C 29.19 in /  988.4 hPa SSE 12.0 mph /  19.3 km/h 21.0 mph /  33.8 km/h 85 % 0.00 in /  0 mm 0 W/m2
20:25 51.5 °F /  10.8 °C 47.1 °F /  8.4 °C 29.19 in /  988.4 hPa SE 14.0 mph /  22.5 km/h 21.0 mph /  33.8 km/h 85 % 0.00 in /  0 mm 0 W/m2
20:30 51.4 °F /  10.8 °C 47.0 °F /  8.3 °C 29.19 in /  988.4 hPa South 14.0 mph /  22.5 km/h 21.0 mph /  33.8 km/h 85 % 0.00 in /  0 mm 0 W/m2
20:35 51.5 °F /  10.8 °C 47.1 °F /  8.4 °C 29.18 in /  988 hPa South 15.0 mph /  24.1 km/h 21.0 mph /  33.8 km/h 85 % 0.00 in /  0 mm 0 W/m2
20:45 51.7 °F /  10.9 °C 46.7 °F /  8.2 °C 29.18 in /  988 hPa SE 16.0 mph /  25.7 km/h 21.0 mph /  33.8 km/h 83 % 0.00 in /  0 mm 0 W/m2
20:50 51.7 °F /  10.9 °C 46.4 °F /  8 °C 29.18 in /  988 hPa SSW 16.0 mph /  25.7 km/h 16.0 mph /  25.7 km/h 82 % 0.00 in /  0 mm 0 W/m2
20:55 51.6 °F /  10.9 °C 46.3 °F /  7.9 °C 29.18 in /  988 hPa SE 17.0 mph /  27.4 km/h 23.0 mph /  37 km/h 82 % 0.00 in /  0 mm 0 W/m2
21:00 51.5 °F /  10.8 °C 46.2 °F /  7.9 °C 29.18 in /  988 hPa SE 16.0 mph /  25.7 km/h 21.0 mph /  33.8 km/h 82 % 0.00 in /  0 mm 0 W/m2
21:05 51.3 °F /  10.7 °C 46.0 °F /  7.8 °C 29.18 in /  988 hPa South 15.0 mph /  24.1 km/h 21.0 mph /  33.8 km/h 82 % 0.00 in /  0 mm 0 W/m2
21:10 51.2 °F /  10.7 °C 45.9 °F /  7.7 °C 29.18 in /  988 hPa South 16.0 mph /  25.7 km/h 27.0 mph /  43.5 km/h 82 % 0.00 in /  0 mm 0 W/m2
21:20 51.0 °F /  10.6 °C 45.7 °F /  7.6 °C 29.18 in /  988 hPa SSE 16.0 mph /  25.7 km/h 21.0 mph /  33.8 km/h 82 % 0.00 in /  0 mm 0 W/m2
21:25 51.0 °F /  10.6 °C 45.7 °F /  7.6 °C 29.17 in /  987.7 hPa SSE 17.0 mph /  27.4 km/h 21.0 mph /  33.8 km/h 82 % 0.00 in /  0 mm 0 W/m2
21:30 50.9 °F /  10.5 °C 45.6 °F /  7.6 °C 29.18 in /  988 hPa South 15.0 mph /  24.1 km/h 21.0 mph /  33.8 km/h 82 % 0.00 in /  0 mm 0 W/m2
21:35 50.9 °F /  10.5 °C 45.6 °F /  7.6 °C 29.18 in /  988 hPa SSW 14.0 mph /  22.5 km/h 21.0 mph /  33.8 km/h 82 % 0.00 in /  0 mm 0 W/m2
21:40 51.0 °F /  10.6 °C 45.7 °F /  7.6 °C 29.18 in /  988 hPa South 16.0 mph /  25.7 km/h 16.0 mph /  25.7 km/h 82 % 0.00 in /  0 mm 0 W/m2
21:45 51.0 °F /  10.6 °C 45.7 °F /  7.6 °C 29.18 in /  988 hPa South 16.0 mph /  25.7 km/h 30.0 mph /  48.3 km/h 82 % 0.00 in /  0 mm 0 W/m2
21:50 51.1 °F /  10.6 °C 45.5 °F /  7.5 °C 29.18 in /  988 hPa South 18.0 mph /  29 km/h 23.0 mph /  37 km/h 81 % 0.00 in /  0 mm 0 W/m2
21:55 51.0 °F /  10.6 °C 45.4 °F /  7.4 °C 29.17 in /  987.7 hPa SSW 17.0 mph /  27.4 km/h 28.0 mph /  45.1 km/h 81 % 0.00 in /  0 mm 0 W/m2
22:00 51.0 °F /  10.6 °C 45.4 °F /  7.4 °C 29.18 in /  988 hPa South 17.0 mph /  27.4 km/h 17.0 mph /  27.4 km/h 81 % 0.00 in /  0 mm 0 W/m2
22:05 51.0 °F /  10.6 °C 45.4 °F /  7.4 °C 29.18 in /  988 hPa South 17.0 mph /  27.4 km/h 23.0 mph /  37 km/h 81 % 0.00 in /  0 mm 0 W/m2
22:10 51.0 °F /  10.6 °C 45.4 °F /  7.4 °C 29.18 in /  988 hPa SSW 16.0 mph /  25.7 km/h 16.0 mph /  25.7 km/h 81 % 0.00 in /  0 mm 0 W/m2
22:15 51.1 °F /  10.6 °C 45.5 °F /  7.5 °C 29.18 in /  988 hPa SSE 17.0 mph /  27.4 km/h 17.0 mph /  27.4 km/h 81 % 0.00 in /  0 mm 0 W/m2
22:25 51.0 °F /  10.6 °C 45.4 °F /  7.4 °C 29.17 in /  987.7 hPa SSE 14.0 mph /  22.5 km/h 21.0 mph /  33.8 km/h 81 % 0.00 in /  0 mm 0 W/m2
22:30 50.9 °F /  10.5 °C 45.3 °F /  7.4 °C 29.17 in /  987.7 hPa South 14.0 mph /  22.5 km/h 14.0 mph /  22.5 km/h 81 % 0.00 in /  0 mm 0 W/m2
22:35 50.9 °F /  10.5 °C 44.9 °F /  7.2 °C 29.17 in /  987.7 hPa SSE 16.0 mph /  25.7 km/h 16.0 mph /  25.7 km/h 80 % 0.00 in /  0 mm 0 W/m2
22:44 50.8 °F /  10.4 °C 44.9 °F /  7.2 °C 29.17 in /  987.7 hPa SSW 16.0 mph /  25.7 km/h 18.0 mph /  29 km/h 80 % 0.00 in /  0 mm 0 W/m2
22:50 50.8 °F /  10.4 °C 44.9 °F /  7.2 °C 29.17 in /  987.7 hPa SSW 17.0 mph /  27.4 km/h 17.0 mph /  27.4 km/h 80 % 0.00 in /  0 mm 0 W/m2
22:55 50.8 °F /  10.4 °C 44.9 °F /  7.2 °C 29.17 in /  987.7 hPa SSE 18.0 mph /  29 km/h 18.0 mph /  29 km/h 80 % 0.00 in /  0 mm 0 W/m2
23:04 50.7 °F /  10.4 °C 44.8 °F /  7.1 °C 29.17 in /  987.7 hPa South 17.0 mph /  27.4 km/h 21.0 mph /  33.8 km/h 80 % 0.00 in /  0 mm 0 W/m2
23:10 50.8 °F /  10.4 °C 44.9 °F /  7.2 °C 29.17 in /  987.7 hPa SSE 18.0 mph /  29 km/h 21.0 mph /  33.8 km/h 80 % 0.00 in /  0 mm 0 W/m2
23:15 50.9 °F /  10.5 °C 44.6 °F /  7 °C 29.18 in /  988 hPa SSE 18.0 mph /  29 km/h 24.0 mph /  38.6 km/h 79 % 0.00 in /  0 mm 0 W/m2
23:20 50.9 °F /  10.5 °C 44.6 °F /  7 °C 29.18 in /  988 hPa South 17.0 mph /  27.4 km/h 17.0 mph /  27.4 km/h 79 % 0.00 in /  0 mm 0 W/m2
23:24 50.9 °F /  10.5 °C 44.6 °F /  7 °C 29.19 in /  988.4 hPa SSW 16.0 mph /  25.7 km/h 21.0 mph /  33.8 km/h 79 % 0.00 in /  0 mm 0 W/m2
23:30 51.0 °F /  10.6 °C 44.4 °F /  6.9 °C 29.19 in /  988.4 hPa SSW 16.0 mph /  25.7 km/h 26.0 mph /  41.8 km/h 78 % 0.00 in /  0 mm 0 W/m2
23:35 51.0 °F /  10.6 °C 44.4 °F /  6.9 °C 29.19 in /  988.4 hPa South 17.0 mph /  27.4 km/h 26.0 mph /  41.8 km/h 78 % 0.00 in /  0 mm 0 W/m2
23:40 50.9 °F /  10.5 °C 44.3 °F /  6.8 °C 29.19 in /  988.4 hPa SW 16.0 mph /  25.7 km/h 16.0 mph /  25.7 km/h 78 % 0.00 in /  0 mm 0 W/m2
23:45 51.0 °F /  10.6 °C 44.4 °F /  6.9 °C 29.19 in /  988.4 hPa SSW 16.0 mph /  25.7 km/h 26.0 mph /  41.8 km/h 78 % 0.00 in /  0 mm 0 W/m2
23:50 50.9 °F /  10.5 °C 44.3 °F /  6.8 °C 29.19 in /  988.4 hPa South 17.0 mph /  27.4 km/h 21.0 mph /  33.8 km/h 78 % 0.00 in /  0 mm 0 W/m2
23:55 50.8 °F /  10.4 °C 44.2 °F /  6.8 °C 29.19 in /  988.4 hPa South 15.0 mph /  24.1 km/h 21.0 mph /  33.8 km/h 78 % 0.00 in /  0 mm 0 W/m2
Delerius-Weather
Compliments of Weather Underground - 2.25 mb

Data updates at regular intervals.